Current | Forecast
Updated: 4:00 AM EEST on April 22, 2018
Observed at Arad, Hungary
Temperature 9°C
Humidity 93%
Dew Point 8°C
Wind SSE at 9 km/h
Pressure 1017 hPa (Steady)
Conditions Clear
Visibility 10.0 kilometers
UV N/A
Clouds
Yesterday's Maximum 23°C
Yesterday's Minimum 6°C approx.
Yesterday's Heating Degree Days 7 approx.
Sunrise5:38 AM CEST
Sunset7:34 PM CEST
Moon Rise10:55 AM CEST
Moon Set1:30 AM CEST
Moon PhaseMoon Phase
Waxing Crescent
Raw METARMETAR LRAR 220100Z AUTO 15005KT 9999 R09////// R27/P2000 NCD 09/08 Q1017


Monday
. High: 66° F.
Tuesday
. High: 77° F.
Wednesday
. High: 82° F.
Thursday
. High: 87° F.
Friday
. High: 75° F.
Saturday
. High: 73° F.
Sunday
. High: 78° F.
Monday
. High: 75° F.

Units: English | Metric

Find the Weather for any City, State or Zipcode, or Country:

U.S. State List | Severe Weather | Tropical Storms | Ski Conditions
United States | Canada | Central America | South America | Asia | Europe | Australia | Africa | Islands

Weather Underground

© Copyright 2018
The Weather Company, LLC